sensor_id;sensor_type;location;lat;lon;timestamp;P1;durP1;ratioP1;P2;durP2;ratioP2
78648;SDS011;67962;47.310;9.642;2024-02-23T00:01:04;1.05;;;0.30;;
78648;SDS011;67962;47.310;9.642;2024-02-23T00:03:30;0.30;;;0.30;;
78648;SDS011;67962;47.310;9.642;2024-02-23T00:05:55;0.50;;;0.30;;
78648;SDS011;67962;47.310;9.642;2024-02-23T00:08:22;0.20;;;0.20;;
78648;SDS011;67962;47.310;9.642;2024-02-23T00:10:48;0.28;;;0.28;;
78648;SDS011;67962;47.310;9.642;2024-02-23T00:13:13;1.08;;;0.25;;
78648;SDS011;67962;47.310;9.642;2024-02-23T00:15:39;0.50;;;0.30;;
78648;SDS011;67962;47.310;9.642;2024-02-23T00:18:05;0.30;;;0.30;;
78648;SDS011;67962;47.310;9.642;2024-02-23T00:20:31;0.30;;;0.30;;
78648;SDS011;67962;47.310;9.642;2024-02-23T00:22:57;0.20;;;0.20;;
78648;SDS011;67962;47.310;9.642;2024-02-23T00:25:23;0.30;;;0.30;;
78648;SDS011;67962;47.310;9.642;2024-02-23T00:27:49;0.30;;;0.22;;
78648;SDS011;67962;47.310;9.642;2024-02-23T00:30:15;0.25;;;0.25;;
78648;SDS011;67962;47.310;9.642;2024-02-23T00:32:40;0.20;;;0.20;;
78648;SDS011;67962;47.310;9.642;2024-02-23T00:35:06;0.65;;;0.40;;
78648;SDS011;67962;47.310;9.642;2024-02-23T00:37:32;0.40;;;0.30;;
78648;SDS011;67962;47.310;9.642;2024-02-23T00:40:04;0.20;;;0.20;;
78648;SDS011;67962;47.310;9.642;2024-02-23T00:42:30;0.20;;;0.20;;
78648;SDS011;67962;47.310;9.642;2024-02-23T00:44:56;0.30;;;0.30;;
78648;SDS011;67962;47.310;9.642;2024-02-23T00:47:22;0.30;;;0.30;;
78648;SDS011;67962;47.310;9.642;2024-02-23T00:49:47;0.20;;;0.20;;
78648;SDS011;67962;47.310;9.642;2024-02-23T00:52:14;0.30;;;0.30;;
78648;SDS011;67962;47.310;9.642;2024-02-23T00:54:40;0.20;;;0.20;;
78648;SDS011;67962;47.310;9.642;2024-02-23T00:57:05;1.73;;;0.32;;
78648;SDS011;67962;47.310;9.642;2024-02-23T00:59:31;0.30;;;0.30;;
78648;SDS011;67962;47.310;9.642;2024-02-23T01:01:57;0.57;;;0.30;;
78648;SDS011;67962;47.310;9.642;2024-02-23T01:04:23;0.25;;;0.25;;
78648;SDS011;67962;47.310;9.642;2024-02-23T01:06:48;0.20;;;0.20;;
78648;SDS011;67962;47.310;9.642;2024-02-23T01:09:14;0.30;;;0.30;;
78648;SDS011;67962;47.310;9.642;2024-02-23T01:11:42;0.20;;;0.20;;
78648;SDS011;67962;47.310;9.642;2024-02-23T01:14:07;0.20;;;0.20;;
78648;SDS011;67962;47.310;9.642;2024-02-23T01:16:33;0.10;;;0.10;;
78648;SDS011;67962;47.310;9.642;2024-02-23T01:18:59;0.98;;;0.30;;
78648;SDS011;67962;47.310;9.642;2024-02-23T01:21:24;0.25;;;0.25;;
78648;SDS011;67962;47.310;9.642;2024-02-23T01:23:50;0.30;;;0.30;;
78648;SDS011;67962;47.310;9.642;2024-02-23T01:26:15;1.05;;;0.30;;
78648;SDS011;67962;47.310;9.642;2024-02-23T01:28:41;1.20;;;0.30;;
78648;SDS011;67962;47.310;9.642;2024-02-23T01:31:11;0.30;;;0.30;;
78648;SDS011;67962;47.310;9.642;2024-02-23T01:33:37;0.20;;;0.20;;
78648;SDS011;67962;47.310;9.642;2024-02-23T01:36:04;0.17;;;0.17;;
78648;SDS011;67962;47.310;9.642;2024-02-23T01:38:33;0.20;;;0.20;;
78648;SDS011;67962;47.310;9.642;2024-02-23T01:40:59;0.30;;;0.30;;
78648;SDS011;67962;47.310;9.642;2024-02-23T01:43:25;0.65;;;0.20;;
78648;SDS011;67962;47.310;9.642;2024-02-23T01:45:51;0.73;;;0.20;;
78648;SDS011;67962;47.310;9.642;2024-02-23T01:48:17;0.20;;;0.20;;
78648;SDS011;67962;47.310;9.642;2024-02-23T01:50:44;0.73;;;0.20;;
78648;SDS011;67962;47.310;9.642;2024-02-23T01:53:10;0.30;;;0.30;;
78648;SDS011;67962;47.310;9.642;2024-02-23T01:55:39;2.03;;;0.30;;
78648;SDS011;67962;47.310;9.642;2024-02-23T01:58:06;0.85;;;0.38;;
78648;SDS011;67962;47.310;9.642;2024-02-23T02:00:32;0.20;;;0.20;;
78648;SDS011;67962;47.310;9.642;2024-02-23T02:02:59;0.30;;;0.30;;
78648;SDS011;67962;47.310;9.642;2024-02-23T02:05:25;1.08;;;0.52;;
78648;SDS011;67962;47.310;9.642;2024-02-23T02:07:51;0.30;;;0.22;;
78648;SDS011;67962;47.310;9.642;2024-02-23T02:10:23;0.55;;;0.22;;
78648;SDS011;67962;47.310;9.642;2024-02-23T02:12:49;0.28;;;0.28;;
78648;SDS011;67962;47.310;9.642;2024-02-23T02:15:15;0.50;;;0.25;;
78648;SDS011;67962;47.310;9.642;2024-02-23T02:17:41;0.28;;;0.28;;
78648;SDS011;67962;47.310;9.642;2024-02-23T02:20:09;0.38;;;0.30;;
78648;SDS011;67962;47.310;9.642;2024-02-23T02:22:37;0.30;;;0.22;;
78648;SDS011;67962;47.310;9.642;2024-02-23T02:25:03;0.75;;;0.30;;
78648;SDS011;67962;47.310;9.642;2024-02-23T02:27:29;0.88;;;0.40;;
78648;SDS011;67962;47.310;9.642;2024-02-23T02:29:55;0.52;;;0.30;;
78648;SDS011;67962;47.310;9.642;2024-02-23T02:32:20;0.70;;;0.40;;
78648;SDS011;67962;47.310;9.642;2024-02-23T02:34:46;0.50;;;0.38;;
78648;SDS011;67962;47.310;9.642;2024-02-23T02:37:12;0.20;;;0.20;;
78648;SDS011;67962;47.310;9.642;2024-02-23T02:39:38;0.40;;;0.30;;
78648;SDS011;67962;47.310;9.642;2024-02-23T02:42:03;0.20;;;0.20;;
78648;SDS011;67962;47.310;9.642;2024-02-23T02:44:29;0.38;;;0.20;;
78648;SDS011;67962;47.310;9.642;2024-02-23T02:46:56;0.30;;;0.20;;
78648;SDS011;67962;47.310;9.642;2024-02-23T02:49:22;0.30;;;0.30;;
78648;SDS011;67962;47.310;9.642;2024-02-23T02:51:48;0.20;;;0.20;;
78648;SDS011;67962;47.310;9.642;2024-02-23T02:54:14;0.40;;;0.30;;
78648;SDS011;67962;47.310;9.642;2024-02-23T02:56:44;0.30;;;0.30;;
78648;SDS011;67962;47.310;9.642;2024-02-23T02:59:15;0.40;;;0.30;;
78648;SDS011;67962;47.310;9.642;2024-02-23T03:01:41;0.68;;;0.40;;
78648;SDS011;67962;47.310;9.642;2024-02-23T03:04:08;0.20;;;0.20;;
78648;SDS011;67962;47.310;9.642;2024-02-23T03:06:33;0.30;;;0.30;;
78648;SDS011;67962;47.310;9.642;2024-02-23T03:08:59;0.30;;;0.30;;
78648;SDS011;67962;47.310;9.642;2024-02-23T03:11:25;0.40;;;0.30;;
78648;SDS011;67962;47.310;9.642;2024-02-23T03:13:50;0.28;;;0.28;;
78648;SDS011;67962;47.310;9.642;2024-02-23T03:16:16;0.20;;;0.20;;
78648;SDS011;67962;47.310;9.642;2024-02-23T03:18:42;0.35;;;0.30;;
78648;SDS011;67962;47.310;9.642;2024-02-23T03:21:08;0.50;;;0.25;;
78648;SDS011;67962;47.310;9.642;2024-02-23T03:23:34;0.60;;;0.30;;
78648;SDS011;67962;47.310;9.642;2024-02-23T03:26:00;0.25;;;0.25;;
78648;SDS011;67962;47.310;9.642;2024-02-23T03:28:27;0.65;;;0.30;;
78648;SDS011;67962;47.310;9.642;2024-02-23T03:30:53;0.60;;;0.30;;
78648;SDS011;67962;47.310;9.642;2024-02-23T03:33:19;0.60;;;0.30;;
78648;SDS011;67962;47.310;9.642;2024-02-23T03:35:44;0.55;;;0.30;;
78648;SDS011;67962;47.310;9.642;2024-02-23T03:38:10;0.65;;;0.35;;
78648;SDS011;67962;47.310;9.642;2024-02-23T03:40:36;0.45;;;0.30;;
78648;SDS011;67962;47.310;9.642;2024-02-23T03:43:02;0.30;;;0.30;;
78648;SDS011;67962;47.310;9.642;2024-02-23T03:45:28;1.75;;;0.50;;
78648;SDS011;67962;47.310;9.642;2024-02-23T03:47:54;0.40;;;0.40;;
78648;SDS011;67962;47.310;9.642;2024-02-23T03:50:19;0.50;;;0.30;;
78648;SDS011;67962;47.310;9.642;2024-02-23T03:52:45;0.70;;;0.45;;
78648;SDS011;67962;47.310;9.642;2024-02-23T03:55:11;0.73;;;0.30;;
78648;SDS011;67962;47.310;9.642;2024-02-23T03:57:37;0.70;;;0.30;;
78648;SDS011;67962;47.310;9.642;2024-02-23T04:00:03;1.20;;;0.38;;
78648;SDS011;67962;47.310;9.642;2024-02-23T04:02:29;0.20;;;0.20;;
78648;SDS011;67962;47.310;9.642;2024-02-23T04:04:55;2.03;;;0.30;;
78648;SDS011;67962;47.310;9.642;2024-02-23T04:07:20;0.30;;;0.30;;
78648;SDS011;67962;47.310;9.642;2024-02-23T04:09:46;1.75;;;0.40;;
78648;SDS011;67962;47.310;9.642;2024-02-23T04:12:17;0.38;;;0.38;;
78648;SDS011;67962;47.310;9.642;2024-02-23T04:14:44;0.30;;;0.30;;
78648;SDS011;67962;47.310;9.642;2024-02-23T04:17:10;0.38;;;0.38;;
78648;SDS011;67962;47.310;9.642;2024-02-23T04:19:42;0.47;;;0.30;;
78648;SDS011;67962;47.310;9.642;2024-02-23T04:22:08;0.30;;;0.30;;
78648;SDS011;67962;47.310;9.642;2024-02-23T04:24:35;1.02;;;0.30;;
78648;SDS011;67962;47.310;9.642;2024-02-23T04:27:03;0.32;;;0.30;;
78648;SDS011;67962;47.310;9.642;2024-02-23T04:29:29;1.83;;;0.40;;
78648;SDS011;67962;47.310;9.642;2024-02-23T04:31:55;1.05;;;0.40;;
78648;SDS011;67962;47.310;9.642;2024-02-23T04:34:20;0.70;;;0.20;;
78648;SDS011;67962;47.310;9.642;2024-02-23T04:36:46;1.30;;;0.30;;
78648;SDS011;67962;47.310;9.642;2024-02-23T04:39:12;0.55;;;0.30;;
78648;SDS011;67962;47.310;9.642;2024-02-23T04:41:37;0.30;;;0.28;;
78648;SDS011;67962;47.310;9.642;2024-02-23T04:44:03;0.30;;;0.30;;
78648;SDS011;67962;47.310;9.642;2024-02-23T04:46:30;0.20;;;0.20;;
78648;SDS011;67962;47.310;9.642;2024-02-23T04:48:56;0.50;;;0.40;;
78648;SDS011;67962;47.310;9.642;2024-02-23T04:51:22;2.08;;;0.60;;
78648;SDS011;67962;47.310;9.642;2024-02-23T04:53:48;0.60;;;0.50;;
78648;SDS011;67962;47.310;9.642;2024-02-23T04:56:14;1.10;;;0.50;;
78648;SDS011;67962;47.310;9.642;2024-02-23T04:58:40;5.03;;;1.20;;
78648;SDS011;67962;47.310;9.642;2024-02-23T05:01:09;2.92;;;0.60;;
78648;SDS011;67962;47.310;9.642;2024-02-23T05:03:35;0.95;;;0.50;;
78648;SDS011;67962;47.310;9.642;2024-02-23T05:06:02;1.05;;;0.30;;
78648;SDS011;67962;47.310;9.642;2024-02-23T05:08:28;0.80;;;0.50;;
78648;SDS011;67962;47.310;9.642;2024-02-23T05:10:55;2.38;;;0.40;;
78648;SDS011;67962;47.310;9.642;2024-02-23T05:13:23;1.13;;;0.40;;
78648;SDS011;67962;47.310;9.642;2024-02-23T05:15:49;1.55;;;0.50;;
78648;SDS011;67962;47.310;9.642;2024-02-23T05:18:15;1.10;;;0.30;;
78648;SDS011;67962;47.310;9.642;2024-02-23T05:20:41;1.02;;;0.40;;
78648;SDS011;67962;47.310;9.642;2024-02-23T05:23:07;0.85;;;0.50;;
78648;SDS011;67962;47.310;9.642;2024-02-23T05:25:32;0.60;;;0.40;;
78648;SDS011;67962;47.310;9.642;2024-02-23T05:27:58;0.45;;;0.45;;
78648;SDS011;67962;47.310;9.642;2024-02-23T05:30:24;0.73;;;0.50;;
78648;SDS011;67962;47.310;9.642;2024-02-23T05:32:52;3.22;;;0.80;;
78648;SDS011;67962;47.310;9.642;2024-02-23T05:35:18;0.50;;;0.50;;
78648;SDS011;67962;47.310;9.642;2024-02-23T05:37:43;9.35;;;4.10;;
78648;SDS011;67962;47.310;9.642;2024-02-23T05:40:09;5.80;;;2.30;;
78648;SDS011;67962;47.310;9.642;2024-02-23T05:42:38;0.93;;;0.77;;
78648;SDS011;67962;47.310;9.642;2024-02-23T05:45:04;1.10;;;0.50;;
78648;SDS011;67962;47.310;9.642;2024-02-23T05:47:34;1.42;;;0.50;;
78648;SDS011;67962;47.310;9.642;2024-02-23T05:50:07;2.00;;;0.60;;
78648;SDS011;67962;47.310;9.642;2024-02-23T05:52:36;1.45;;;0.50;;
78648;SDS011;67962;47.310;9.642;2024-02-23T05:55:02;3.30;;;0.40;;
78648;SDS011;67962;47.310;9.642;2024-02-23T05:57:29;1.48;;;0.70;;
78648;SDS011;67962;47.310;9.642;2024-02-23T05:59:55;1.02;;;0.90;;
78648;SDS011;67962;47.310;9.642;2024-02-23T06:02:21;0.70;;;0.40;;
78648;SDS011;67962;47.310;9.642;2024-02-23T06:04:50;0.52;;;0.40;;
78648;SDS011;67962;47.310;9.642;2024-02-23T06:07:16;0.40;;;0.40;;
78648;SDS011;67962;47.310;9.642;2024-02-23T06:09:42;1.42;;;0.38;;
78648;SDS011;67962;47.310;9.642;2024-02-23T06:12:08;1.00;;;0.60;;
78648;SDS011;67962;47.310;9.642;2024-02-23T06:14:34;0.68;;;0.50;;
78648;SDS011;67962;47.310;9.642;2024-02-23T06:17:00;1.38;;;0.43;;
78648;SDS011;67962;47.310;9.642;2024-02-23T06:19:26;1.23;;;0.70;;
78648;SDS011;67962;47.310;9.642;2024-02-23T06:21:52;1.80;;;0.50;;
78648;SDS011;67962;47.310;9.642;2024-02-23T06:24:17;0.57;;;0.40;;
78648;SDS011;67962;47.310;9.642;2024-02-23T06:26:44;1.23;;;0.60;;
78648;SDS011;67962;47.310;9.642;2024-02-23T06:29:11;0.98;;;0.60;;
78648;SDS011;67962;47.310;9.642;2024-02-23T06:31:38;2.22;;;0.90;;
78648;SDS011;67962;47.310;9.642;2024-02-23T06:34:05;2.08;;;1.10;;
78648;SDS011;67962;47.310;9.642;2024-02-23T06:36:31;5.47;;;1.13;;
78648;SDS011;67962;47.310;9.642;2024-02-23T06:38:56;4.80;;;1.20;;
78648;SDS011;67962;47.310;9.642;2024-02-23T06:41:22;5.80;;;1.30;;
78648;SDS011;67962;47.310;9.642;2024-02-23T06:43:48;7.93;;;1.77;;
78648;SDS011;67962;47.310;9.642;2024-02-23T06:46:14;1.67;;;0.88;;
78648;SDS011;67962;47.310;9.642;2024-02-23T06:48:39;1.30;;;0.63;;
78648;SDS011;67962;47.310;9.642;2024-02-23T06:51:05;1.88;;;0.70;;
78648;SDS011;67962;47.310;9.642;2024-02-23T06:53:34;2.05;;;0.90;;
78648;SDS011;67962;47.310;9.642;2024-02-23T06:56:00;3.40;;;1.05;;
78648;SDS011;67962;47.310;9.642;2024-02-23T06:58:27;6.90;;;0.90;;
78648;SDS011;67962;47.310;9.642;2024-02-23T07:00:53;1.67;;;0.70;;
78648;SDS011;67962;47.310;9.642;2024-02-23T07:03:18;2.63;;;0.98;;
78648;SDS011;67962;47.310;9.642;2024-02-23T07:05:44;5.75;;;1.60;;
78648;SDS011;67962;47.310;9.642;2024-02-23T07:08:11;6.18;;;1.17;;
78648;SDS011;67962;47.310;9.642;2024-02-23T07:10:37;3.95;;;1.13;;
78648;SDS011;67962;47.310;9.642;2024-02-23T07:13:03;8.18;;;2.20;;
78648;SDS011;67962;47.310;9.642;2024-02-23T07:15:29;6.63;;;1.85;;
78648;SDS011;67962;47.310;9.642;2024-02-23T07:17:55;3.10;;;1.30;;
78648;SDS011;67962;47.310;9.642;2024-02-23T07:20:21;2.17;;;1.10;;
78648;SDS011;67962;47.310;9.642;2024-02-23T07:22:47;1.92;;;0.80;;
78648;SDS011;67962;47.310;9.642;2024-02-23T07:25:16;18.38;;;2.90;;
78648;SDS011;67962;47.310;9.642;2024-02-23T07:27:43;2.55;;;1.10;;
78648;SDS011;67962;47.310;9.642;2024-02-23T07:30:10;3.42;;;1.10;;
78648;SDS011;67962;47.310;9.642;2024-02-23T07:32:36;2.88;;;1.00;;
78648;SDS011;67962;47.310;9.642;2024-02-23T07:35:02;1.65;;;0.80;;
78648;SDS011;67962;47.310;9.642;2024-02-23T07:37:29;2.53;;;1.20;;
78648;SDS011;67962;47.310;9.642;2024-02-23T07:39:55;4.05;;;1.50;;
78648;SDS011;67962;47.310;9.642;2024-02-23T07:42:20;3.30;;;1.50;;
78648;SDS011;67962;47.310;9.642;2024-02-23T07:44:46;2.20;;;1.42;;
78648;SDS011;67962;47.310;9.642;2024-02-23T07:47:12;3.15;;;1.60;;
78648;SDS011;67962;47.310;9.642;2024-02-23T07:49:38;3.17;;;1.42;;
78648;SDS011;67962;47.310;9.642;2024-02-23T07:52:06;4.68;;;1.90;;
78648;SDS011;67962;47.310;9.642;2024-02-23T07:54:31;4.10;;;1.92;;
78648;SDS011;67962;47.310;9.642;2024-02-23T07:56:57;5.07;;;2.00;;
78648;SDS011;67962;47.310;9.642;2024-02-23T07:59:24;4.65;;;2.05;;
78648;SDS011;67962;47.310;9.642;2024-02-23T08:01:49;3.38;;;1.40;;
78648;SDS011;67962;47.310;9.642;2024-02-23T08:04:15;3.03;;;1.67;;
78648;SDS011;67962;47.310;9.642;2024-02-23T08:06:41;5.68;;;2.30;;
78648;SDS011;67962;47.310;9.642;2024-02-23T08:09:08;4.88;;;1.90;;
78648;SDS011;67962;47.310;9.642;2024-02-23T08:11:34;3.90;;;1.88;;
78648;SDS011;67962;47.310;9.642;2024-02-23T08:14:00;3.83;;;2.25;;
78648;SDS011;67962;47.310;9.642;2024-02-23T08:16:28;1.88;;;0.95;;
78648;SDS011;67962;47.310;9.642;2024-02-23T08:18:53;2.70;;;0.93;;
78648;SDS011;67962;47.310;9.642;2024-02-23T08:21:19;1.08;;;0.70;;
78648;SDS011;67962;47.310;9.642;2024-02-23T08:23:45;1.67;;;0.90;;
78648;SDS011;67962;47.310;9.642;2024-02-23T08:26:11;1.00;;;0.82;;
78648;SDS011;67962;47.310;9.642;2024-02-23T08:28:36;1.38;;;0.80;;
78648;SDS011;67962;47.310;9.642;2024-02-23T08:31:02;1.42;;;0.80;;
78648;SDS011;67962;47.310;9.642;2024-02-23T08:33:28;3.97;;;2.75;;
78648;SDS011;67962;47.310;9.642;2024-02-23T08:35:54;3.60;;;2.00;;
78648;SDS011;67962;47.310;9.642;2024-02-23T08:38:19;2.67;;;1.60;;
78648;SDS011;67962;47.310;9.642;2024-02-23T08:40:45;2.13;;;1.23;;
78648;SDS011;67962;47.310;9.642;2024-02-23T08:43:11;1.83;;;1.23;;
78648;SDS011;67962;47.310;9.642;2024-02-23T08:45:37;2.45;;;1.45;;
78648;SDS011;67962;47.310;9.642;2024-02-23T08:48:02;1.73;;;1.05;;
78648;SDS011;67962;47.310;9.642;2024-02-23T08:50:29;3.88;;;1.80;;
78648;SDS011;67962;47.310;9.642;2024-02-23T08:52:55;3.45;;;1.85;;
78648;SDS011;67962;47.310;9.642;2024-02-23T08:55:20;4.03;;;2.38;;
78648;SDS011;67962;47.310;9.642;2024-02-23T08:57:46;5.65;;;2.38;;
78648;SDS011;67962;47.310;9.642;2024-02-23T09:00:12;7.20;;;3.40;;
78648;SDS011;67962;47.310;9.642;2024-02-23T09:02:39;9.77;;;5.03;;
78648;SDS011;67962;47.310;9.642;2024-02-23T09:05:07;17.42;;;9.38;;
78648;SDS011;67962;47.310;9.642;2024-02-23T09:07:33;17.02;;;7.20;;
78648;SDS011;67962;47.310;9.642;2024-02-23T09:09:59;11.38;;;5.60;;
78648;SDS011;67962;47.310;9.642;2024-02-23T09:12:25;24.67;;;10.45;;
78648;SDS011;67962;47.310;9.642;2024-02-23T09:14:51;26.23;;;9.50;;
78648;SDS011;67962;47.310;9.642;2024-02-23T09:17:17;5.07;;;2.60;;
78648;SDS011;67962;47.310;9.642;2024-02-23T09:19:45;7.13;;;2.80;;
78648;SDS011;67962;47.310;9.642;2024-02-23T09:22:11;4.93;;;2.40;;
78648;SDS011;67962;47.310;9.642;2024-02-23T09:24:40;1.60;;;1.10;;
78648;SDS011;67962;47.310;9.642;2024-02-23T09:27:06;4.70;;;1.88;;
78648;SDS011;67962;47.310;9.642;2024-02-23T09:29:34;9.13;;;2.38;;
78648;SDS011;67962;47.310;9.642;2024-02-23T09:32:00;6.00;;;1.92;;
78648;SDS011;67962;47.310;9.642;2024-02-23T09:34:26;3.00;;;1.42;;
78648;SDS011;67962;47.310;9.642;2024-02-23T09:36:52;3.95;;;1.50;;
78648;SDS011;67962;47.310;9.642;2024-02-23T09:39:17;3.25;;;1.48;;
78648;SDS011;67962;47.310;9.642;2024-02-23T09:41:45;4.82;;;2.47;;
78648;SDS011;67962;47.310;9.642;2024-02-23T09:44:15;2.38;;;1.33;;
78648;SDS011;67962;47.310;9.642;2024-02-23T09:46:43;2.35;;;1.17;;
78648;SDS011;67962;47.310;9.642;2024-02-23T09:49:10;3.72;;;1.13;;
78648;SDS011;67962;47.310;9.642;2024-02-23T09:51:36;5.13;;;1.20;;
78648;SDS011;67962;47.310;9.642;2024-02-23T09:54:04;3.05;;;1.10;;
78648;SDS011;67962;47.310;9.642;2024-02-23T09:56:30;3.65;;;0.95;;
78648;SDS011;67962;47.310;9.642;2024-02-23T09:58:56;2.55;;;0.90;;
78648;SDS011;67962;47.310;9.642;2024-02-23T10:01:26;3.38;;;1.50;;
78648;SDS011;67962;47.310;9.642;2024-02-23T10:04:02;2.92;;;1.20;;
78648;SDS011;67962;47.310;9.642;2024-02-23T10:06:29;2.95;;;1.40;;
78648;SDS011;67962;47.310;9.642;2024-02-23T10:08:55;3.55;;;1.58;;
78648;SDS011;67962;47.310;9.642;2024-02-23T10:11:21;4.18;;;2.28;;
78648;SDS011;67962;47.310;9.642;2024-02-23T10:13:47;2.83;;;1.38;;
78648;SDS011;67962;47.310;9.642;2024-02-23T10:16:17;3.55;;;1.10;;
78648;SDS011;67962;47.310;9.642;2024-02-23T10:18:45;4.20;;;1.50;;
78648;SDS011;67962;47.310;9.642;2024-02-23T10:21:17;6.10;;;1.35;;
78648;SDS011;67962;47.310;9.642;2024-02-23T10:23:46;1.40;;;0.90;;
78648;SDS011;67962;47.310;9.642;2024-02-23T10:26:13;3.47;;;1.13;;
78648;SDS011;67962;47.310;9.642;2024-02-23T10:28:44;3.25;;;0.75;;
78648;SDS011;67962;47.310;9.642;2024-02-23T10:31:10;1.77;;;1.10;;
78648;SDS011;67962;47.310;9.642;2024-02-23T10:33:36;5.40;;;1.83;;
78648;SDS011;67962;47.310;9.642;2024-02-23T10:36:03;4.20;;;1.85;;
78648;SDS011;67962;47.310;9.642;2024-02-23T10:38:33;1.85;;;1.08;;
78648;SDS011;67962;47.310;9.642;2024-02-23T10:41:04;1.92;;;0.80;;
78648;SDS011;67962;47.310;9.642;2024-02-23T10:43:41;1.92;;;0.80;;
78648;SDS011;67962;47.310;9.642;2024-02-23T10:46:12;1.50;;;0.80;;
78648;SDS011;67962;47.310;9.642;2024-02-23T10:48:41;2.70;;;1.25;;
78648;SDS011;67962;47.310;9.642;2024-02-23T10:51:08;2.22;;;1.20;;
78648;SDS011;67962;47.310;9.642;2024-02-23T10:53:37;8.30;;;3.60;;
78648;SDS011;67962;47.310;9.642;2024-02-23T10:56:08;4.43;;;1.60;;
78648;SDS011;67962;47.310;9.642;2024-02-23T10:58:35;4.25;;;1.52;;
78648;SDS011;67962;47.310;9.642;2024-02-23T11:01:01;5.07;;;1.27;;
78648;SDS011;67962;47.310;9.642;2024-02-23T11:03:33;1.85;;;0.95;;
78648;SDS011;67962;47.310;9.642;2024-02-23T11:06:02;2.00;;;1.00;;
78648;SDS011;67962;47.310;9.642;2024-02-23T11:08:28;3.08;;;1.02;;
78648;SDS011;67962;47.310;9.642;2024-02-23T11:10:54;2.22;;;1.10;;
78648;SDS011;67962;47.310;9.642;2024-02-23T11:13:29;1.80;;;1.00;;
78648;SDS011;67962;47.310;9.642;2024-02-23T11:16:05;1.45;;;0.98;;
78648;SDS011;67962;47.310;9.642;2024-02-23T11:18:35;3.38;;;1.00;;
78648;SDS011;67962;47.310;9.642;2024-02-23T11:21:03;0.95;;;0.70;;
78648;SDS011;67962;47.310;9.642;2024-02-23T11:23:52;1.77;;;0.90;;
78648;SDS011;67962;47.310;9.642;2024-02-23T11:26:18;1.60;;;1.00;;
78648;SDS011;67962;47.310;9.642;2024-02-23T11:28:47;1.85;;;0.70;;
78648;SDS011;67962;47.310;9.642;2024-02-23T11:31:14;1.40;;;0.60;;
78648;SDS011;67962;47.310;9.642;2024-02-23T11:33:47;1.52;;;0.80;;
78648;SDS011;67962;47.310;9.642;2024-02-23T11:36:21;1.77;;;0.95;;
78648;SDS011;67962;47.310;9.642;2024-02-23T11:39:00;2.15;;;0.95;;
78648;SDS011;67962;47.310;9.642;2024-02-23T11:41:27;4.20;;;1.00;;
78648;SDS011;67962;47.310;9.642;2024-02-23T11:43:54;2.45;;;1.10;;
78648;SDS011;67962;47.310;9.642;2024-02-23T11:46:20;3.78;;;0.90;;
78648;SDS011;67962;47.310;9.642;2024-02-23T11:48:47;2.67;;;1.10;;
78648;SDS011;67962;47.310;9.642;2024-02-23T11:51:22;1.83;;;0.95;;
78648;SDS011;67962;47.310;9.642;2024-02-23T11:53:49;1.90;;;1.00;;
78648;SDS011;67962;47.310;9.642;2024-02-23T11:56:15;3.80;;;1.50;;
78648;SDS011;67962;47.310;9.642;2024-02-23T11:58:41;3.88;;;1.83;;
78648;SDS011;67962;47.310;9.642;2024-02-23T12:01:07;3.22;;;1.45;;
78648;SDS011;67962;47.310;9.642;2024-02-23T12:03:33;1.65;;;1.00;;
78648;SDS011;67962;47.310;9.642;2024-02-23T12:05:59;1.02;;;0.93;;
78648;SDS011;67962;47.310;9.642;2024-02-23T12:08:26;1.50;;;0.98;;
78648;SDS011;67962;47.310;9.642;2024-02-23T12:10:56;2.63;;;1.25;;
78648;SDS011;67962;47.310;9.642;2024-02-23T12:13:28;3.72;;;0.88;;
78648;SDS011;67962;47.310;9.642;2024-02-23T12:15:54;1.20;;;0.82;;
78648;SDS011;67962;47.310;9.642;2024-02-23T12:18:21;2.55;;;1.05;;
78648;SDS011;67962;47.310;9.642;2024-02-23T12:20:59;1.77;;;1.05;;
78648;SDS011;67962;47.310;9.642;2024-02-23T12:23:50;5.28;;;1.10;;
78648;SDS011;67962;47.310;9.642;2024-02-23T12:26:16;3.45;;;1.00;;
78648;SDS011;67962;47.310;9.642;2024-02-23T12:28:43;3.00;;;0.98;;
78648;SDS011;67962;47.310;9.642;2024-02-23T12:31:09;2.10;;;0.85;;
78648;SDS011;67962;47.310;9.642;2024-02-23T12:33:36;1.85;;;1.08;;
78648;SDS011;67962;47.310;9.642;2024-02-23T12:36:03;1.70;;;1.00;;
78648;SDS011;67962;47.310;9.642;2024-02-23T12:38:29;3.15;;;1.00;;
78648;SDS011;67962;47.310;9.642;2024-02-23T12:40:55;2.13;;;0.80;;
78648;SDS011;67962;47.310;9.642;2024-02-23T12:43:21;1.52;;;0.88;;
78648;SDS011;67962;47.310;9.642;2024-02-23T12:45:49;3.28;;;0.90;;
78648;SDS011;67962;47.310;9.642;2024-02-23T12:48:20;1.85;;;0.90;;
78648;SDS011;67962;47.310;9.642;2024-02-23T12:50:47;2.42;;;0.90;;
78648;SDS011;67962;47.310;9.642;2024-02-23T12:56:01;1.13;;;0.50;;
78648;SDS011;67962;47.310;9.642;2024-02-23T12:58:28;1.42;;;0.60;;
78648;SDS011;67962;47.310;9.642;2024-02-23T13:00:53;3.38;;;0.88;;
78648;SDS011;67962;47.310;9.642;2024-02-23T13:03:19;0.80;;;0.60;;
78648;SDS011;67962;47.310;9.642;2024-02-23T13:05:45;2.08;;;0.80;;
78648;SDS011;67962;47.310;9.642;2024-02-23T13:08:12;1.20;;;0.75;;
78648;SDS011;67962;47.310;9.642;2024-02-23T13:10:37;2.15;;;0.60;;
78648;SDS011;67962;47.310;9.642;2024-02-23T13:13:03;3.00;;;0.70;;
78648;SDS011;67962;47.310;9.642;2024-02-23T13:15:29;1.30;;;0.80;;
78648;SDS011;67962;47.310;9.642;2024-02-23T13:17:54;2.03;;;0.73;;
78648;SDS011;67962;47.310;9.642;2024-02-23T13:20:22;1.45;;;0.73;;
78648;SDS011;67962;47.310;9.642;2024-02-23T13:22:47;1.33;;;0.60;;
78648;SDS011;67962;47.310;9.642;2024-02-23T13:25:14;0.82;;;0.70;;
78648;SDS011;67962;47.310;9.642;2024-02-23T13:27:39;1.77;;;0.60;;
78648;SDS011;67962;47.310;9.642;2024-02-23T13:30:05;2.33;;;0.80;;
78648;SDS011;67962;47.310;9.642;2024-02-23T13:32:32;2.15;;;0.90;;
78648;SDS011;67962;47.310;9.642;2024-02-23T13:34:58;1.70;;;0.80;;
78648;SDS011;67962;47.310;9.642;2024-02-23T13:37:23;4.28;;;0.70;;
78648;SDS011;67962;47.310;9.642;2024-02-23T13:39:51;1.25;;;0.70;;
78648;SDS011;67962;47.310;9.642;2024-02-23T13:42:16;2.50;;;0.70;;
78648;SDS011;67962;47.310;9.642;2024-02-23T13:44:42;0.93;;;0.68;;
78648;SDS011;67962;47.310;9.642;2024-02-23T13:47:08;1.48;;;0.80;;
78648;SDS011;67962;47.310;9.642;2024-02-23T13:49:36;1.65;;;0.82;;
78648;SDS011;67962;47.310;9.642;2024-02-23T13:52:02;0.88;;;0.60;;
78648;SDS011;67962;47.310;9.642;2024-02-23T13:54:27;1.27;;;0.77;;
78648;SDS011;67962;47.310;9.642;2024-02-23T13:56:53;2.15;;;0.80;;
78648;SDS011;67962;47.310;9.642;2024-02-23T13:59:19;1.55;;;0.80;;
78648;SDS011;67962;47.310;9.642;2024-02-23T14:01:44;2.75;;;0.70;;
78648;SDS011;67962;47.310;9.642;2024-02-23T14:04:10;2.42;;;0.70;;
78648;SDS011;67962;47.310;9.642;2024-02-23T14:06:36;1.95;;;0.70;;
78648;SDS011;67962;47.310;9.642;2024-02-23T14:09:01;2.25;;;0.90;;
78648;SDS011;67962;47.310;9.642;2024-02-23T14:11:28;1.58;;;0.80;;
78648;SDS011;67962;47.310;9.642;2024-02-23T14:13:55;2.55;;;0.90;;
78648;SDS011;67962;47.310;9.642;2024-02-23T14:16:21;1.38;;;0.90;;
78648;SDS011;67962;47.310;9.642;2024-02-23T14:18:48;2.72;;;0.55;;
78648;SDS011;67962;47.310;9.642;2024-02-23T14:21:14;2.80;;;0.90;;
78648;SDS011;67962;47.310;9.642;2024-02-23T14:23:41;2.58;;;0.70;;
78648;SDS011;67962;47.310;9.642;2024-02-23T14:26:07;1.60;;;0.70;;
78648;SDS011;67962;47.310;9.642;2024-02-23T14:28:33;2.05;;;0.82;;
78648;SDS011;67962;47.310;9.642;2024-02-23T14:30:59;0.98;;;0.60;;
78648;SDS011;67962;47.310;9.642;2024-02-23T14:33:25;1.65;;;0.85;;
78648;SDS011;67962;47.310;9.642;2024-02-23T14:35:50;4.28;;;0.90;;
78648;SDS011;67962;47.310;9.642;2024-02-23T14:38:16;2.90;;;0.80;;
78648;SDS011;67962;47.310;9.642;2024-02-23T14:40:42;2.97;;;0.73;;
78648;SDS011;67962;47.310;9.642;2024-02-23T14:43:08;35.80;;;13.82;;
78648;SDS011;67962;47.310;9.642;2024-02-23T14:45:35;14.00;;;4.47;;
78648;SDS011;67962;47.310;9.642;2024-02-23T14:48:01;5.60;;;1.40;;